Lewisville, Indiana
Current Conditions -  °F | °C
As of 3:53 PM on Friday 28 Nov 2014 (Local Time) from KGEZ Reporting Station
Clear Clear  
Wind Chill: 23°   Ceiling: Unl
Heat Index: 34°   Visibility: 10mi
Dew Point: 21°   Wind: 18mph
Humidity: 59%   Direction: 160°SSE
Pressure: 30.15"   Gusts: NA
Location:  39.81°N, 85.35°W
Report Text: KGEZ 282053Z AUTO 16016KT 10SM CLR 01/M06 A3015 RMK AO2 SLP219 T00111061 56033
Loading
Personal Weather Stations






























Interactive Weather Map New forecast layout! Learn more

10-Day Weather Forecast

Advertisements
Track Severe Weather on mobile